Time;durP1;ratioP1;P1;durP2;ratioP2;P2;SDS_P1;SDS_P2;PMS_P1;PMS_P2;Temp;Humidity;BMP_temperature;BMP_pressure;BME280_temperature;BME280_humidity;BME280_pressure;Samples;Min_cycle;Max_cycle;Signal;HPM_P1;HPM_P2
2021/04/08 00:01:44;;;;;;;6.65;2.92;;;;;;;;;;5095333;28;20211;-65
2021/04/08 00:04:11;;;;;;;14.40;3.10;;;;;;;;;;5093879;28;20722;-66
2021/04/08 00:06:38;;;;;;;15.02;3.80;;;;;;;;;;5095499;28;20680;-65
2021/04/08 00:09:05;;;;;;;8.88;3.72;;;;;;;;;;5094990;28;20718;-65
2021/04/08 00:11:32;;;;;;;6.50;3.10;;;;;;;;;;5094908;28;20577;-65
2021/04/08 00:13:58;;;;;;;9.90;3.72;;;;;;;;;;5095066;28;20196;-63
2021/04/08 00:16:25;;;;;;;8.32;3.92;;;;;;;;;;5094595;28;20671;-63
2021/04/08 00:18:53;;;;;;;7.57;3.05;;;;;;;;;;5094374;28;20256;-64
2021/04/08 00:21:20;;;;;;;7.40;3.30;;;;;;;;;;5094175;28;20207;-65
2021/04/08 00:23:46;;;;;;;9.13;3.03;;;;;;;;;;5096486;28;20200;-66
2021/04/08 00:26:13;;;;;;;4.50;2.80;;;;;;;;;;5097724;28;20564;-66
2021/04/08 00:28:40;;;;;;;10.02;3.40;;;;;;;;;;5097796;28;20269;-65
2021/04/08 00:31:07;;;;;;;10.52;3.30;;;;;;;;;;5097693;28;20200;-65
2021/04/08 00:33:33;;;;;;;8.70;3.35;;;;;;;;;;5097853;28;20209;-65
2021/04/08 00:36:01;;;;;;;6.93;3.10;;;;;;;;;;5097761;28;20224;-65
2021/04/08 00:38:28;;;;;;;6.88;2.45;;;;;;;;;;5097680;28;20221;-64
2021/04/08 00:40:55;;;;;;;9.05;2.92;;;;;;;;;;5097687;28;20204;-64
2021/04/08 00:43:22;;;;;;;12.32;3.25;;;;;;;;;;5097680;28;20217;-65
2021/04/08 00:45:48;;;;;;;7.57;2.70;;;;;;;;;;5097744;28;20226;-65
2021/04/08 00:48:15;;;;;;;4.43;2.40;;;;;;;;;;5097133;28;20692;-64
2021/04/08 00:50:42;;;;;;;7.10;2.80;;;;;;;;;;5098212;28;20208;-66
2021/04/08 00:53:13;;;;;;;6.55;2.70;;;;;;;;;;5100413;28;20202;-66
2021/04/08 00:55:40;;;;;;;6.85;2.65;;;;;;;;;;5108551;28;20218;-65
2021/04/08 00:58:08;;;;;;;10.75;2.60;;;;;;;;;;5111655;28;20192;-66
2021/04/08 01:00:36;;;;;;;10.82;2.85;;;;;;;;;;5107030;28;20198;-65
2021/04/08 01:03:03;;;;;;;8.75;2.80;;;;;;;;;;5102451;28;20206;-65
2021/04/08 01:05:30;;;;;;;9.63;2.80;;;;;;;;;;5098071;28;20573;-65
2021/04/08 01:07:56;;;;;;;5.75;2.00;;;;;;;;;;5097099;28;20220;-65
2021/04/08 01:10:25;;;;;;;6.32;2.60;;;;;;;;;;5096900;28;20211;-66
2021/04/08 01:12:52;;;;;;;2.95;2.40;;;;;;;;;;5097078;28;20203;-65
2021/04/08 01:15:19;;;;;;;10.05;2.13;;;;;;;;;;5096728;28;20227;-64
2021/04/08 01:17:48;;;;;;;5.43;2.58;;;;;;;;;;5096620;28;20204;-64
2021/04/08 01:20:38;;;;;;;8.40;3.25;;;;;;;;;;5096539;28;20204;-65
2021/04/08 01:23:29;;;;;;;7.68;2.60;;;;;;;;;;5096682;28;20189;-64
2021/04/08 01:26:20;;;;;;;5.95;2.90;;;;;;;;;;5096600;28;20562;-65
2021/04/08 01:28:48;;;;;;;7.10;2.38;;;;;;;;;;5039829;28;20233;-65
2021/04/08 01:31:17;;;;;;;5.90;3.33;;;;;;;;;;5096269;28;20185;-65
2021/04/08 01:33:46;;;;;;;6.45;2.63;;;;;;;;;;5096371;28;20674;-65
2021/04/08 01:36:16;;;;;;;6.95;2.90;;;;;;;;;;5095879;28;20220;-65
2021/04/08 01:38:44;;;;;;;11.00;3.70;;;;;;;;;;5096849;28;20184;-65
2021/04/08 01:41:12;;;;;;;5.43;2.88;;;;;;;;;;5096335;28;20214;-65
2021/04/08 01:43:40;;;;;;;9.23;2.78;;;;;;;;;;5096539;28;20619;-65
2021/04/08 01:46:09;;;;;;;12.73;2.72;;;;;;;;;;5096393;28;20220;-65
2021/04/08 01:48:37;;;;;;;8.57;3.50;;;;;;;;;;5096032;28;20242;-66
2021/04/08 01:51:05;;;;;;;5.10;2.70;;;;;;;;;;5096353;28;20204;-66
2021/04/08 01:53:34;;;;;;;8.00;2.88;;;;;;;;;;5095958;28;20574;-65
2021/04/08 01:56:02;;;;;;;6.65;2.10;;;;;;;;;;5096319;28;20224;-65
2021/04/08 01:58:29;;;;;;;8.38;3.05;;;;;;;;;;5096265;28;20204;-66
2021/04/08 02:00:57;;;;;;;9.52;2.97;;;;;;;;;;5095915;28;20254;-66
2021/04/08 02:03:25;;;;;;;10.57;2.65;;;;;;;;;;5096044;28;20261;-66
2021/04/08 02:05:53;;;;;;;4.05;2.15;;;;;;;;;;5095923;28;20240;-65
2021/04/08 02:08:21;;;;;;;12.65;4.28;;;;;;;;;;5095543;28;20212;-66
2021/04/08 02:10:48;;;;;;;5.93;2.33;;;;;;;;;;5096285;28;20207;-64
2021/04/08 02:13:16;;;;;;;6.20;2.30;;;;;;;;;;5098803;28;20249;-65
2021/04/08 02:15:44;;;;;;;4.40;2.05;;;;;;;;;;5099561;28;20734;-65
2021/04/08 02:18:14;;;;;;;9.13;2.83;;;;;;;;;;5100641;28;20204;-65
2021/04/08 02:20:42;;;;;;;3.95;2.10;;;;;;;;;;5100616;28;20185;-66
2021/04/08 02:23:10;;;;;;;12.85;2.65;;;;;;;;;;5096756;28;20671;-66
2021/04/08 02:25:38;;;;;;;6.50;2.17;;;;;;;;;;5095584;28;20220;-66
2021/04/08 02:28:05;;;;;;;7.35;1.90;;;;;;;;;;5096530;28;20234;-66
2021/04/08 02:30:45;;;;;;;8.52;3.22;;;;;;;;;;5098040;28;20204;-66
2021/04/08 02:33:12;;;;;;;8.73;2.25;;;;;;;;;;5096940;28;20665;-64
2021/04/08 02:35:39;;;;;;;6.95;1.92;;;;;;;;;;5097197;28;20254;-65
2021/04/08 02:38:06;;;;;;;11.20;2.33;;;;;;;;;;5098714;28;20245;-66
2021/04/08 02:40:33;;;;;;;7.93;1.95;;;;;;;;;;5098889;28;20246;-64
2021/04/08 02:43:00;;;;;;;5.97;2.67;;;;;;;;;;5098965;28;20200;-65
2021/04/08 02:45:27;;;;;;;10.73;2.15;;;;;;;;;;5102377;28;20220;-65
2021/04/08 02:47:53;;;;;;;5.57;2.20;;;;;;;;;;5099870;28;20202;-65
2021/04/08 02:50:20;;;;;;;9.05;2.75;;;;;;;;;;5100510;28;20200;-63
2021/04/08 02:52:53;;;;;;;3.83;2.10;;;;;;;;;;5099740;28;20669;-66
2021/04/08 02:55:21;;;;;;;7.03;2.70;;;;;;;;;;5098077;28;20227;-65
2021/04/08 02:57:52;;;;;;;9.20;2.75;;;;;;;;;;5098964;28;20226;-65
2021/04/08 03:00:20;;;;;;;10.40;2.50;;;;;;;;;;5097239;28;20195;-65
2021/04/08 03:02:47;;;;;;;8.32;2.58;;;;;;;;;;5097168;28;20223;-65
2021/04/08 03:05:14;;;;;;;7.32;2.42;;;;;;;;;;5096890;28;20216;-65
2021/04/08 03:07:43;;;;;;;6.88;2.45;;;;;;;;;;5096734;28;20212;-64
2021/04/08 03:10:12;;;;;;;3.17;2.25;;;;;;;;;;5096853;28;20291;-65
2021/04/08 03:12:40;;;;;;;5.28;2.35;;;;;;;;;;5097583;28;20207;-65
2021/04/08 03:15:09;;;;;;;6.45;2.05;;;;;;;;;;5095645;28;20222;-66
2021/04/08 03:17:38;;;;;;;9.13;2.00;;;;;;;;;;5095828;28;20251;-66
2021/04/08 03:20:06;;;;;;;9.50;2.17;;;;;;;;;;5096200;28;20203;-66
2021/04/08 03:22:34;;;;;;;6.90;2.70;;;;;;;;;;5097418;28;20256;-66
2021/04/08 03:25:01;;;;;;;11.93;2.90;;;;;;;;;;5096408;28;20632;-66
2021/04/08 03:27:29;;;;;;;5.55;2.70;;;;;;;;;;5095749;28;20200;-66
2021/04/08 03:29:56;;;;;;;11.13;3.10;;;;;;;;;;5095449;28;20224;-66
2021/04/08 03:32:24;;;;;;;10.30;2.40;;;;;;;;;;5094805;28;20204;-65
2021/04/08 03:34:52;;;;;;;7.55;2.38;;;;;;;;;;5095225;28;20219;-65
2021/04/08 03:37:18;;;;;;;5.75;2.40;;;;;;;;;;5094640;28;20238;-66
2021/04/08 03:39:46;;;;;;;11.48;3.13;;;;;;;;;;5094392;28;20203;-66
2021/04/08 03:42:13;;;;;;;9.30;2.00;;;;;;;;;;5094348;28;20202;-65
2021/04/08 03:44:40;;;;;;;5.30;2.67;;;;;;;;;;5094758;28;20223;-66
2021/04/08 03:47:07;;;;;;;5.60;2.90;;;;;;;;;;5094492;28;20195;-64
2021/04/08 03:49:35;;;;;;;7.07;2.78;;;;;;;;;;5094343;28;20223;-66
2021/04/08 03:52:03;;;;;;;11.02;2.40;;;;;;;;;;5094786;28;20203;-66
2021/04/08 03:54:31;;;;;;;8.23;2.70;;;;;;;;;;5093951;28;20222;-66
2021/04/08 03:56:58;;;;;;;7.80;2.05;;;;;;;;;;5093874;28;20207;-66
2021/04/08 03:59:25;;;;;;;10.35;1.88;;;;;;;;;;5093514;28;20223;-66
2021/04/08 04:01:52;;;;;;;7.43;2.22;;;;;;;;;;5093493;28;20204;-66
2021/04/08 04:04:20;;;;;;;8.18;2.50;;;;;;;;;;5093808;28;20200;-65
2021/04/08 04:07:59;;;;;;;11.98;1.95;;;;;;;;;;5112046;27;20548;-64
2021/04/08 04:10:25;;;;;;;9.02;2.70;;;;;;;;;;5111640;28;20569;-66
2021/04/08 04:12:53;;;;;;;10.40;3.60;;;;;;;;;;5111536;28;20595;-64
2021/04/08 04:15:20;;;;;;;8.95;2.45;;;;;;;;;;5112766;28;20220;-64
2021/04/08 04:17:48;;;;;;;7.40;3.22;;;;;;;;;;5113263;28;20199;-64
2021/04/08 04:20:16;;;;;;;8.05;2.60;;;;;;;;;;5114042;28;20199;-65
2021/04/08 04:22:43;;;;;;;8.25;2.10;;;;;;;;;;5112421;28;20249;-65
2021/04/08 04:25:12;;;;;;;12.30;3.50;;;;;;;;;;5113496;28;20730;-66
2021/04/08 04:27:39;;;;;;;10.23;3.20;;;;;;;;;;5112217;28;20716;-65
2021/04/08 04:30:07;;;;;;;6.07;2.67;;;;;;;;;;5113098;28;20203;-66
2021/04/08 04:32:34;;;;;;;7.90;3.08;;;;;;;;;;5111437;28;20249;-65
2021/04/08 04:35:01;;;;;;;11.82;3.08;;;;;;;;;;5111867;28;20220;-67
2021/04/08 04:37:28;;;;;;;10.32;3.05;;;;;;;;;;5111246;28;20195;-67
2021/04/08 04:39:54;;;;;;;9.18;3.10;;;;;;;;;;5111036;28;20551;-65
2021/04/08 04:42:22;;;;;;;6.15;2.50;;;;;;;;;;5110827;28;20211;-66
2021/04/08 04:44:49;;;;;;;10.73;3.22;;;;;;;;;;5110525;28;20300;-66
2021/04/08 04:47:16;;;;;;;7.68;2.20;;;;;;;;;;5110267;28;20760;-66
2021/04/08 04:49:42;;;;;;;10.98;2.60;;;;;;;;;;5110814;28;20199;-65
2021/04/08 04:52:09;;;;;;;5.97;2.47;;;;;;;;;;5110662;28;20211;-65
2021/04/08 04:54:36;;;;;;;7.68;2.63;;;;;;;;;;5110451;28;20227;-65
2021/04/08 04:57:03;;;;;;;11.40;3.05;;;;;;;;;;5110847;28;20199;-66
2021/04/08 04:59:30;;;;;;;7.43;2.33;;;;;;;;;;5110202;28;20210;-65
2021/04/08 05:01:57;;;;;;;10.35;3.17;;;;;;;;;;5111008;28;20695;-64
2021/04/08 05:04:24;;;;;;;6.57;3.17;;;;;;;;;;5110919;28;20227;-64
2021/04/08 05:06:50;;;;;;;3.80;1.85;;;;;;;;;;5111845;28;20221;-64
2021/04/08 05:09:17;;;;;;;4.15;2.33;;;;;;;;;;5112003;28;20207;-65
2021/04/08 05:11:44;;;;;;;5.30;2.33;;;;;;;;;;5111810;28;20249;-64
2021/04/08 05:14:11;;;;;;;9.88;2.50;;;;;;;;;;5111087;28;20758;-63
2021/04/08 05:16:38;;;;;;;10.60;3.50;;;;;;;;;;5111061;28;20197;-66
2021/04/08 05:19:05;;;;;;;4.95;2.15;;;;;;;;;;5100482;28;20205;-65
2021/04/08 05:21:32;;;;;;;7.00;3.63;;;;;;;;;;5099730;28;20219;-65
2021/04/08 05:23:59;;;;;;;9.30;3.55;;;;;;;;;;5099256;28;20208;-64
2021/04/08 05:26:25;;;;;;;11.68;3.20;;;;;;;;;;5096801;28;20213;-67
2021/04/08 05:28:52;;;;;;;7.90;2.90;;;;;;;;;;5097500;28;20208;-65
2021/04/08 05:31:19;;;;;;;8.15;2.80;;;;;;;;;;5097468;28;20204;-66
2021/04/08 05:33:47;;;;;;;9.52;2.90;;;;;;;;;;5096884;28;20204;-66
2021/04/08 05:36:13;;;;;;;11.45;3.40;;;;;;;;;;5097752;28;20223;-65
2021/04/08 05:38:40;;;;;;;8.13;3.33;;;;;;;;;;5098035;28;20217;-63
2021/04/08 05:41:07;;;;;;;10.32;3.03;;;;;;;;;;5097872;28;20229;-66
2021/04/08 05:43:34;;;;;;;9.20;2.88;;;;;;;;;;5098176;28;20196;-65
2021/04/08 05:46:01;;;;;;;11.60;3.72;;;;;;;;;;5099046;28;20623;-64
2021/04/08 05:48:27;;;;;;;8.18;3.00;;;;;;;;;;5097707;28;20230;-63
2021/04/08 05:50:55;;;;;;;8.55;3.10;;;;;;;;;;5097587;28;20202;-64
2021/04/08 05:53:22;;;;;;;15.40;3.15;;;;;;;;;;5098127;28;20201;-66
2021/04/08 05:55:48;;;;;;;6.43;2.65;;;;;;;;;;5097151;28;20711;-65
2021/04/08 05:58:15;;;;;;;7.72;3.20;;;;;;;;;;5097216;28;20204;-64
2021/04/08 06:00:42;;;;;;;5.18;2.90;;;;;;;;;;5097074;28;20200;-63
2021/04/08 06:03:08;;;;;;;6.15;2.40;;;;;;;;;;5095942;28;20204;-64
2021/04/08 06:05:35;;;;;;;5.15;2.03;;;;;;;;;;5095352;28;20249;-63
2021/04/08 06:08:03;;;;;;;8.95;3.28;;;;;;;;;;5096071;28;20267;-64
2021/04/08 06:10:30;;;;;;;16.40;3.88;;;;;;;;;;5095744;28;20226;-64
2021/04/08 06:12:57;;;;;;;2.65;2.30;;;;;;;;;;5095926;28;20567;-63
2021/04/08 06:15:23;;;;;;;10.55;2.70;;;;;;;;;;5096061;28;20566;-63
2021/04/08 06:17:50;;;;;;;7.15;2.60;;;;;;;;;;5095767;28;20259;-64
2021/04/08 06:20:18;;;;;;;9.10;2.47;;;;;;;;;;5095805;28;20228;-62
2021/04/08 06:22:44;;;;;;;5.38;2.55;;;;;;;;;;5095691;28;20221;-63
2021/04/08 06:25:13;;;;;;;9.52;4.07;;;;;;;;;;5095776;28;20221;-61
2021/04/08 06:27:39;;;;;;;7.65;2.35;;;;;;;;;;5095463;28;20706;-63
2021/04/08 06:30:07;;;;;;;9.00;3.10;;;;;;;;;;5094373;28;20205;-64
2021/04/08 06:32:34;;;;;;;6.93;2.75;;;;;;;;;;5095355;28;20215;-62
2021/04/08 06:35:00;;;;;;;7.63;2.58;;;;;;;;;;5095598;28;20220;-63
2021/04/08 06:37:27;;;;;;;5.15;2.05;;;;;;;;;;5095779;28;20205;-62
2021/04/08 06:39:54;;;;;;;7.65;2.83;;;;;;;;;;5095482;28;20199;-64
2021/04/08 06:42:22;;;;;;;5.63;2.20;;;;;;;;;;5094818;28;20609;-62
2021/04/08 06:44:50;;;;;;;5.25;2.65;;;;;;;;;;5095068;28;20282;-63
2021/04/08 06:47:20;;;;;;;3.85;2.45;;;;;;;;;;5094713;28;20581;-64
2021/04/08 06:49:49;;;;;;;9.68;2.17;;;;;;;;;;5095630;28;20202;-62
2021/04/08 06:52:17;;;;;;;11.88;2.55;;;;;;;;;;5095049;28;20206;-62
2021/04/08 06:54:45;;;;;;;5.57;2.30;;;;;;;;;;5095163;28;20222;-63
2021/04/08 06:57:13;;;;;;;6.25;2.45;;;;;;;;;;5095712;28;20247;-63
2021/04/08 06:59:40;;;;;;;11.13;2.50;;;;;;;;;;5095045;28;20206;-63
2021/04/08 07:02:14;;;;;;;5.30;1.90;;;;;;;;;;5095301;28;20203;-64
2021/04/08 07:04:40;;;;;;;10.07;2.13;;;;;;;;;;5095011;28;20728;-63
2021/04/08 07:07:07;;;;;;;3.65;2.00;;;;;;;;;;5094489;28;20260;-63
2021/04/08 07:09:34;;;;;;;3.85;2.45;;;;;;;;;;5094484;28;20214;-63
2021/04/08 07:12:01;;;;;;;8.35;2.30;;;;;;;;;;5099625;28;20207;-64
2021/04/08 07:14:28;;;;;;;11.93;3.45;;;;;;;;;;5110938;28;20222;-63
2021/04/08 07:16:55;;;;;;;8.77;3.15;;;;;;;;;;5109472;28;20617;-63
2021/04/08 07:19:22;;;;;;;5.90;1.90;;;;;;;;;;5110618;28;20204;-63
2021/04/08 07:21:49;;;;;;;4.85;1.92;;;;;;;;;;5107875;28;20207;-63
2021/04/08 07:24:16;;;;;;;5.32;1.67;;;;;;;;;;5104979;28;20203;-64
2021/04/08 07:26:53;;;;;;;6.70;2.00;;;;;;;;;;5106005;28;20216;-62
2021/04/08 07:29:21;;;;;;;5.82;1.73;;;;;;;;;;5105632;28;20250;-61
2021/04/08 07:31:47;;;;;;;5.50;2.08;;;;;;;;;;5107373;28;20214;-63
2021/04/08 07:34:32;;;;;;;2.80;2.05;;;;;;;;;;5106657;28;20204;-62
2021/04/08 07:36:58;;;;;;;7.03;2.88;;;;;;;;;;5112635;28;20238;-62
2021/04/08 07:39:25;;;;;;;6.28;2.38;;;;;;;;;;5107767;28;20211;-63
2021/04/08 07:41:59;;;;;;;3.35;1.85;;;;;;;;;;5100451;28;20207;-62
2021/04/08 07:44:26;;;;;;;4.20;2.00;;;;;;;;;;5102209;28;20219;-61
2021/04/08 07:46:54;;;;;;;9.38;2.65;;;;;;;;;;5101751;28;20243;-63
2021/04/08 07:49:28;;;;;;;5.70;2.10;;;;;;;;;;5102434;28;20295;-62
2021/04/08 07:51:55;;;;;;;4.38;2.50;;;;;;;;;;5102270;28;20203;-62
2021/04/08 07:54:22;;;;;;;5.97;2.42;;;;;;;;;;5100514;28;20232;-62
2021/04/08 07:56:49;;;;;;;10.88;3.63;;;;;;;;;;5098907;28;20204;-60
2021/04/08 07:59:20;;;;;;;6.30;2.10;;;;;;;;;;5096970;28;20570;-63
2021/04/08 08:01:47;;;;;;;6.28;2.70;;;;;;;;;;5099809;28;20204;-62
2021/04/08 08:04:21;;;;;;;12.05;2.20;;;;;;;;;;5097313;28;20196;-64
2021/04/08 08:06:49;;;;;;;7.00;1.73;;;;;;;;;;5097277;28;20277;-61
2021/04/08 08:09:19;;;;;;;4.95;1.88;;;;;;;;;;5097778;28;20200;-61
2021/04/08 08:11:46;;;;;;;4.22;2.00;;;;;;;;;;5098708;28;20188;-64
2021/04/08 08:14:13;;;;;;;4.45;1.70;;;;;;;;;;5096912;28;20716;-62
2021/04/08 08:16:39;;;;;;;6.78;2.10;;;;;;;;;;5096343;28;20703;-63
2021/04/08 08:19:06;;;;;;;3.72;1.88;;;;;;;;;;5094878;28;20551;-64
2021/04/08 08:21:37;;;;;;;5.43;1.70;;;;;;;;;;5094417;28;20223;-63
2021/04/08 08:24:09;;;;;;;3.92;1.70;;;;;;;;;;5096315;28;20234;-62
2021/04/08 08:26:36;;;;;;;6.35;1.80;;;;;;;;;;5094556;28;20315;-61
2021/04/08 08:29:04;;;;;;;5.20;1.75;;;;;;;;;;5098155;28;20226;-62
2021/04/08 08:31:35;;;;;;;7.70;2.50;;;;;;;;;;5094390;28;20204;-62
2021/04/08 08:34:05;;;;;;;8.82;1.90;;;;;;;;;;5093821;28;20269;-62
2021/04/08 08:36:32;;;;;;;7.80;2.40;;;;;;;;;;5093309;28;20664;-63
2021/04/08 08:39:01;;;;;;;7.25;2.63;;;;;;;;;;5094379;28;20204;-61
2021/04/08 08:41:28;;;;;;;3.80;1.85;;;;;;;;;;5093518;28;20668;-63
2021/04/08 08:43:56;;;;;;;7.53;1.70;;;;;;;;;;5093931;28;20207;-62
2021/04/08 08:46:24;;;;;;;5.07;1.70;;;;;;;;;;5095092;28;20702;-62
2021/04/08 08:48:52;;;;;;;4.30;2.40;;;;;;;;;;5095086;28;20249;-61
2021/04/08 08:51:20;;;;;;;3.83;2.00;;;;;;;;;;5095132;28;20691;-62
2021/04/08 08:53:48;;;;;;;4.63;2.60;;;;;;;;;;5096777;28;20261;-62
2021/04/08 08:56:15;;;;;;;4.80;1.75;;;;;;;;;;5098307;28;20300;-62
2021/04/08 08:58:43;;;;;;;6.28;2.15;;;;;;;;;;5097469;28;20196;-61
2021/04/08 09:01:10;;;;;;;4.47;2.17;;;;;;;;;;5097476;28;20204;-64
2021/04/08 09:03:37;;;;;;;4.90;2.65;;;;;;;;;;5097081;28;20200;-63
2021/04/08 09:06:06;;;;;;;5.93;2.80;;;;;;;;;;5097372;28;20246;-63
2021/04/08 09:08:35;;;;;;;5.78;2.63;;;;;;;;;;5097856;28;20204;-62
2021/04/08 09:11:02;;;;;;;10.20;2.47;;;;;;;;;;5097889;28;20188;-63
2021/04/08 09:13:29;;;;;;;7.85;2.20;;;;;;;;;;5097825;28;20196;-63
2021/04/08 09:15:59;;;;;;;9.30;2.00;;;;;;;;;;5097116;28;20220;-62
2021/04/08 09:18:26;;;;;;;5.35;1.95;;;;;;;;;;5097268;28;20234;-64
2021/04/08 09:20:53;;;;;;;4.80;2.08;;;;;;;;;;5097809;28;20207;-62
2021/04/08 09:23:22;;;;;;;6.35;2.20;;;;;;;;;;5097522;28;20196;-63
2021/04/08 09:25:53;;;;;;;3.30;1.80;;;;;;;;;;5097582;28;20216;-63
2021/04/08 09:28:20;;;;;;;6.03;2.60;;;;;;;;;;5096789;28;20220;-63
2021/04/08 09:30:57;;;;;;;5.45;2.17;;;;;;;;;;5097258;28;20204;-63
2021/04/08 09:33:42;;;;;;;7.47;2.53;;;;;;;;;;5097896;28;20184;-63
2021/04/08 09:36:24;;;;;;;4.72;2.05;;;;;;;;;;5096970;28;20220;-62
2021/04/08 09:38:52;;;;;;;10.15;2.75;;;;;;;;;;5096694;28;20294;-63
2021/04/08 09:41:20;;;;;;;7.80;2.45;;;;;;;;;;5096544;28;20208;-63
2021/04/08 09:43:46;;;;;;;5.75;1.80;;;;;;;;;;5096561;28;20205;-63
2021/04/08 09:46:15;;;;;;;5.13;2.30;;;;;;;;;;5096656;28;20615;-62
2021/04/08 09:48:49;;;;;;;5.07;2.50;;;;;;;;;;5096336;28;20290;-61
2021/04/08 09:51:29;;;;;;;4.82;2.22;;;;;;;;;;5096240;28;20199;-62
2021/04/08 09:54:01;;;;;;;3.88;2.17;;;;;;;;;;5097113;28;20226;-64
2021/04/08 09:56:41;;;;;;;7.07;2.70;;;;;;;;;;5097077;28;20196;-62
2021/04/08 09:59:08;;;;;;;6.90;2.33;;;;;;;;;;5096311;28;20196;-64
2021/04/08 10:01:35;;;;;;;4.28;2.40;;;;;;;;;;5096434;28;20200;-62
2021/04/08 10:04:10;;;;;;;4.70;2.40;;;;;;;;;;5097271;28;20204;-63
2021/04/08 10:06:37;;;;;;;3.33;1.80;;;;;;;;;;5097082;28;20228;-63
2021/04/08 10:09:07;;;;;;;4.68;1.80;;;;;;;;;;5097035;28;20200;-63
2021/04/08 10:11:34;;;;;;;5.60;1.90;;;;;;;;;;5096625;28;20204;-61
2021/04/08 10:14:00;;;;;;;3.90;2.08;;;;;;;;;;5097382;28;20211;-62
2021/04/08 10:16:27;;;;;;;6.15;1.90;;;;;;;;;;5096354;28;20200;-62
2021/04/08 10:19:01;;;;;;;5.40;2.17;;;;;;;;;;5097099;28;20204;-63
2021/04/08 10:21:29;;;;;;;4.22;2.00;;;;;;;;;;5096924;28;20241;-63
2021/04/08 10:23:56;;;;;;;4.93;1.67;;;;;;;;;;5095956;28;20690;-63
2021/04/08 10:26:25;;;;;;;4.10;1.70;;;;;;;;;;5095174;28;20216;-64
2021/04/08 10:28:52;;;;;;;2.75;1.70;;;;;;;;;;5095013;28;20737;-63
2021/04/08 10:31:20;;;;;;;5.60;1.85;;;;;;;;;;5096349;28;20197;-61
2021/04/08 10:33:47;;;;;;;6.88;2.78;;;;;;;;;;5096286;28;20277;-64
2021/04/08 10:36:26;;;;;;;2.45;1.63;;;;;;;;;;5095425;28;20254;-63
2021/04/08 10:39:04;;;;;;;3.80;1.90;;;;;;;;;;5097612;28;20211;-62
2021/04/08 10:41:32;;;;;;;3.55;1.85;;;;;;;;;;5097207;28;20184;-64
2021/04/08 10:44:13;;;;;;;7.97;2.20;;;;;;;;;;5096384;28;20204;-62
2021/04/08 10:46:44;;;;;;;6.57;1.90;;;;;;;;;;5095385;28;20220;-63
2021/04/08 10:49:11;;;;;;;3.85;1.83;;;;;;;;;;5095846;28;20188;-63
2021/04/08 10:51:38;;;;;;;4.28;2.35;;;;;;;;;;5095184;28;20229;-64
2021/04/08 10:54:05;;;;;;;7.40;2.53;;;;;;;;;;5094597;28;20685;-64
2021/04/08 10:56:33;;;;;;;5.85;2.85;;;;;;;;;;5095049;28;20196;-64
2021/04/08 10:59:14;;;;;;;4.45;2.10;;;;;;;;;;5095504;28;20204;-63
2021/04/08 11:01:41;;;;;;;6.15;2.53;;;;;;;;;;5096699;28;20196;-64
2021/04/08 11:04:08;;;;;;;3.50;1.67;;;;;;;;;;5095736;28;20196;-63
2021/04/08 11:06:35;;;;;;;3.90;2.15;;;;;;;;;;5095315;28;20700;-64
2021/04/08 11:09:01;;;;;;;6.80;2.03;;;;;;;;;;5094448;28;20230;-62
2021/04/08 11:11:28;;;;;;;2.72;1.60;;;;;;;;;;5094585;28;20204;-63
2021/04/08 11:13:56;;;;;;;4.93;1.90;;;;;;;;;;5094225;28;20200;-63
2021/04/08 11:16:23;;;;;;;3.50;1.95;;;;;;;;;;5093878;28;20772;-62
2021/04/08 11:18:51;;;;;;;9.27;1.77;;;;;;;;;;5094162;28;20204;-64
2021/04/08 11:21:18;;;;;;;3.25;2.15;;;;;;;;;;5094911;28;20204;-63
2021/04/08 11:23:45;;;;;;;7.20;2.17;;;;;;;;;;5094765;28;20196;-64
2021/04/08 11:26:12;;;;;;;4.95;2.00;;;;;;;;;;5093963;28;20223;-62
2021/04/08 11:28:41;;;;;;;4.78;2.15;;;;;;;;;;5094081;28;20664;-64
2021/04/08 11:31:16;;;;;;;3.63;2.03;;;;;;;;;;5094862;28;20203;-62
2021/04/08 11:33:43;;;;;;;2.20;2.00;;;;;;;;;;5094152;28;20668;-62
2021/04/08 11:36:19;;;;;;;5.63;1.92;;;;;;;;;;5094231;28;20216;-64
2021/04/08 11:38:46;;;;;;;3.65;1.92;;;;;;;;;;5094096;28;20585;-63
2021/04/08 11:41:13;;;;;;;3.00;1.88;;;;;;;;;;5094454;28;20204;-64
2021/04/08 11:43:45;;;;;;;5.63;2.67;;;;;;;;;;5094691;28;20582;-64
2021/04/08 11:46:25;;;;;;;4.10;2.17;;;;;;;;;;5094153;28;20764;-62
2021/04/08 11:48:52;;;;;;;3.28;2.22;;;;;;;;;;5094171;28;20192;-62
2021/04/08 11:51:20;;;;;;;2.40;1.80;;;;;;;;;;5094832;28;20199;-63
2021/04/08 11:53:47;;;;;;;4.10;2.15;;;;;;;;;;5094487;28;20226;-65
2021/04/08 11:56:30;;;;;;;4.43;2.08;;;;;;;;;;5094692;28;20297;-64
2021/04/08 11:59:10;;;;;;;4.60;2.10;;;;;;;;;;5095432;28;20663;-64
2021/04/08 12:01:39;;;;;;;4.43;2.35;;;;;;;;;;5095500;28;20203;-63
2021/04/08 12:04:11;;;;;;;5.45;2.47;;;;;;;;;;5097191;28;20218;-64
2021/04/08 12:06:41;;;;;;;5.65;2.17;;;;;;;;;;5098101;28;20227;-62
2021/04/08 12:09:08;;;;;;;4.00;2.20;;;;;;;;;;5096217;28;20201;-63
2021/04/08 12:11:50;;;;;;;4.13;2.10;;;;;;;;;;5095636;28;20204;-62
2021/04/08 12:14:17;;;;;;;3.67;2.22;;;;;;;;;;5096503;28;20687;-61
2021/04/08 12:16:45;;;;;;;6.63;2.30;;;;;;;;;;5097082;28;20197;-61
2021/04/08 12:19:24;;;;;;;3.92;2.50;;;;;;;;;;5097916;28;20196;-61
2021/04/08 12:21:58;;;;;;;2.70;1.80;;;;;;;;;;5097931;28;20664;-61
2021/04/08 12:24:25;;;;;;;4.10;2.22;;;;;;;;;;5097565;28;20269;-63
2021/04/08 12:26:52;;;;;;;4.05;2.28;;;;;;;;;;5097400;28;20212;-61
2021/04/08 12:29:20;;;;;;;4.28;1.75;;;;;;;;;;5100617;28;20200;-62
2021/04/08 12:31:48;;;;;;;6.00;2.30;;;;;;;;;;5102426;28;20214;-61
2021/04/08 12:34:15;;;;;;;4.45;2.22;;;;;;;;;;5102922;28;20200;-61
2021/04/08 12:36:42;;;;;;;4.85;1.90;;;;;;;;;;5101179;28;20199;-62
2021/04/08 12:39:09;;;;;;;4.35;1.70;;;;;;;;;;5100262;28;20207;-61
2021/04/08 12:41:36;;;;;;;3.60;1.90;;;;;;;;;;5099756;28;20242;-61
2021/04/08 12:44:03;;;;;;;3.95;2.08;;;;;;;;;;5098905;28;20204;-61
2021/04/08 12:46:30;;;;;;;4.97;2.30;;;;;;;;;;5098342;28;20207;-63
2021/04/08 12:48:57;;;;;;;5.53;2.08;;;;;;;;;;5100321;28;20261;-61
2021/04/08 12:51:24;;;;;;;4.85;2.28;;;;;;;;;;5099180;28;20599;-63
2021/04/08 12:53:51;;;;;;;4.15;1.88;;;;;;;;;;5097684;28;20203;-62
2021/04/08 12:56:18;;;;;;;4.32;1.70;;;;;;;;;;5097918;28;20220;-61
2021/04/08 12:58:44;;;;;;;2.72;2.03;;;;;;;;;;5097133;28;20646;-61
2021/04/08 13:01:11;;;;;;;4.80;1.95;;;;;;;;;;5096801;28;20196;-60
2021/04/08 13:03:38;;;;;;;3.90;1.80;;;;;;;;;;5097774;28;20211;-62
2021/04/08 13:06:06;;;;;;;4.65;2.22;;;;;;;;;;5097234;28;20633;-62
2021/04/08 13:08:33;;;;;;;2.35;1.80;;;;;;;;;;5097536;28;20274;-61
2021/04/08 13:11:00;;;;;;;3.17;1.80;;;;;;;;;;5097022;28;20210;-62
2021/04/08 13:13:26;;;;;;;3.17;2.50;;;;;;;;;;5096307;28;20575;-62
2021/04/08 13:15:53;;;;;;;3.03;1.90;;;;;;;;;;5096971;28;20220;-64
2021/04/08 13:18:20;;;;;;;4.60;1.90;;;;;;;;;;5098062;28;20265;-63
2021/04/08 13:20:49;;;;;;;4.60;1.90;;;;;;;;;;5097208;28;20208;-63
2021/04/08 13:23:16;;;;;;;3.95;1.80;;;;;;;;;;5097273;28;20203;-62
2021/04/08 13:25:43;;;;;;;5.18;2.20;;;;;;;;;;5101090;28;20216;-61
2021/04/08 13:28:10;;;;;;;5.35;2.30;;;;;;;;;;5098496;28;20648;-63
2021/04/08 13:30:37;;;;;;;3.08;1.83;;;;;;;;;;5096822;28;20279;-63
2021/04/08 13:33:04;;;;;;;5.35;1.80;;;;;;;;;;5097467;28;20200;-64
2021/04/08 13:35:31;;;;;;;7.00;2.10;;;;;;;;;;5096427;28;20695;-64
2021/04/08 13:37:59;;;;;;;4.60;2.03;;;;;;;;;;5096650;28;20192;-63
2021/04/08 13:40:27;;;;;;;4.00;2.10;;;;;;;;;;5095952;28;20200;-64
2021/04/08 13:42:54;;;;;;;3.40;1.95;;;;;;;;;;5096411;28;20204;-64
2021/04/08 13:45:21;;;;;;;5.18;2.35;;;;;;;;;;5096828;28;20220;-61
2021/04/08 13:47:49;;;;;;;2.88;2.03;;;;;;;;;;5096202;28;20216;-62
2021/04/08 13:50:16;;;;;;;4.60;1.55;;;;;;;;;;5096608;28;20211;-62
2021/04/08 13:52:43;;;;;;;2.08;1.50;;;;;;;;;;5096396;28;20204;-62
2021/04/08 13:55:11;;;;;;;2.90;1.83;;;;;;;;;;5096370;28;20216;-63
2021/04/08 13:57:39;;;;;;;3.50;1.60;;;;;;;;;;5096537;28;20714;-62
2021/04/08 14:00:08;;;;;;;4.60;1.85;;;;;;;;;;5096900;28;20252;-63
2021/04/08 14:02:35;;;;;;;6.45;2.58;;;;;;;;;;5096335;28;20204;-63
2021/04/08 14:05:02;;;;;;;6.93;2.28;;;;;;;;;;5096163;28;20719;-64
2021/04/08 14:07:28;;;;;;;4.72;2.20;;;;;;;;;;5095919;28;20706;-65
2021/04/08 14:09:55;;;;;;;3.95;2.28;;;;;;;;;;5095761;28;20668;-64
2021/04/08 14:12:22;;;;;;;2.58;1.85;;;;;;;;;;5095785;28;20299;-62
2021/04/08 14:14:49;;;;;;;3.05;2.03;;;;;;;;;;5095883;28;20223;-63
2021/04/08 14:17:16;;;;;;;2.75;2.00;;;;;;;;;;5096352;28;20610;-62
2021/04/08 14:19:43;;;;;;;3.22;2.20;;;;;;;;;;5097167;28;20664;-62
2021/04/08 14:22:10;;;;;;;5.80;2.00;;;;;;;;;;5097870;28;20200;-63
2021/04/08 14:24:36;;;;;;;3.17;2.40;;;;;;;;;;5098336;28;20234;-63
2021/04/08 14:27:03;;;;;;;1.60;1.48;;;;;;;;;;5098011;28;20235;-63
2021/04/08 14:29:30;;;;;;;6.32;2.95;;;;;;;;;;5096222;28;20219;-63
2021/04/08 14:31:58;;;;;;;3.25;2.25;;;;;;;;;;5096282;28;20196;-61
2021/04/08 14:34:24;;;;;;;4.70;2.80;;;;;;;;;;5095222;28;20805;-62
2021/04/08 14:36:51;;;;;;;4.43;2.67;;;;;;;;;;5095989;28;20605;-62
2021/04/08 14:39:18;;;;;;;5.03;3.10;;;;;;;;;;5095915;28;20207;-63
2021/04/08 14:41:45;;;;;;;7.50;3.00;;;;;;;;;;5096964;28;20204;-63
2021/04/08 14:44:12;;;;;;;3.83;2.80;;;;;;;;;;5096016;28;20196;-64
2021/04/08 14:46:38;;;;;;;5.10;3.08;;;;;;;;;;5096290;28;20440;-64
2021/04/08 14:49:06;;;;;;;6.50;3.38;;;;;;;;;;5096615;28;20196;-62